createdAt,value
2018-11-14T00:02:07.001Z,73.97
2018-11-14T00:04:39.927Z,74.46
2018-11-14T00:07:13.075Z,74.29
2018-11-14T00:09:45.006Z,73.64
2018-11-14T00:12:17.908Z,73.16
2018-11-14T00:14:49.886Z,72.76
2018-11-14T00:17:22.265Z,72.04
2018-11-14T00:19:54.749Z,71.98
2018-11-14T00:22:27.058Z,71.68
2018-11-14T00:25:00.520Z,71.06
2018-11-14T00:27:31.260Z,70.75
2018-11-14T00:30:02.249Z,71.28
2018-11-14T00:32:33.165Z,71.08
2018-11-14T00:35:03.904Z,71.35
2018-11-14T00:37:37.260Z,71.40
2018-11-14T00:40:12.020Z,71.80
2018-11-14T00:43:02.000Z,71.59
2018-11-14T00:45:51.490Z,71.89
2018-11-14T00:48:23.834Z,71.97
2018-11-14T00:50:55.224Z,71.74
2018-11-14T00:53:28.330Z,71.64
2018-11-14T00:56:01.255Z,71.21
2018-11-14T00:58:34.164Z,70.19
2018-11-14T01:01:08.302Z,70.17
2018-11-14T01:03:39.689Z,70.31
2018-11-14T01:06:10.537Z,70.10
2018-11-14T01:08:41.093Z,69.88
2018-11-14T01:11:11.668Z,69.92
2018-11-14T01:13:42.249Z,70.32
2018-11-14T01:16:13.273Z,70.32
2018-11-14T01:18:46.293Z,70.76
2018-11-14T01:21:18.916Z,71.51
2018-11-14T01:23:50.208Z,71.66
2018-11-14T01:26:21.526Z,70.98
2018-11-14T01:28:53.447Z,70.93
2018-11-14T01:31:25.349Z,70.77
2018-11-14T01:33:56.531Z,70.12
2018-11-14T01:36:29.315Z,70.28
2018-11-14T01:39:01.853Z,70.28
2018-11-14T01:41:38.532Z,70.47
2018-11-14T01:44:11.495Z,70.56
2018-11-14T01:46:42.512Z,70.32
2018-11-14T01:49:15.624Z,70.44
2018-11-14T01:51:46.496Z,70.71
2018-11-14T01:54:17.604Z,70.80
2018-11-14T01:56:51.526Z,71.32
2018-11-14T01:59:23.431Z,70.83
2018-11-14T02:01:54.750Z,70.56
2018-11-14T02:04:25.582Z,69.92
2018-11-14T02:06:59.740Z,69.53
2018-11-14T02:09:31.474Z,69.07
2018-11-14T02:12:02.561Z,68.79
2018-11-14T02:14:34.419Z,68.36
2018-11-14T02:17:07.613Z,68.52
2018-11-14T02:19:40.589Z,68.30
2018-11-14T02:22:13.716Z,67.69
2018-11-14T02:24:45.004Z,67.11
2018-11-14T02:27:15.572Z,67.17
2018-11-14T02:29:46.244Z,67.19
2018-11-14T02:32:16.809Z,67.19
2018-11-14T02:34:47.437Z,67.10
2018-11-14T02:37:18.144Z,66.45
2018-11-14T02:39:48.834Z,66.35
2018-11-14T02:42:19.633Z,66.63
2018-11-14T02:44:50.472Z,66.42
2018-11-14T02:47:21.497Z,66.65
2018-11-14T02:49:52.313Z,66.51
2018-11-14T02:52:23.940Z,66.66
2018-11-14T02:54:56.611Z,66.67
2018-11-14T02:57:30.560Z,67.10
2018-11-14T03:00:04.402Z,67.35
2018-11-14T03:02:38.108Z,67.83
2018-11-14T03:05:10.141Z,68.02
2018-11-14T03:07:42.247Z,68.29
2018-11-14T03:10:27.511Z,68.39
2018-11-14T03:13:01.145Z,69.26
2018-11-14T03:15:36.698Z,69.37
2018-11-14T03:18:07.903Z,69.78
2018-11-14T03:20:40.999Z,70.22
2018-11-14T03:23:13.022Z,70.88
2018-11-14T03:25:44.111Z,70.87
2018-11-14T03:28:15.892Z,70.77
2018-11-14T03:30:46.886Z,71.27
2018-11-14T03:33:17.600Z,71.05
2018-11-14T03:35:53.448Z,71.55
2018-11-14T03:38:32.000Z,71.63
2018-11-14T03:41:05.466Z,72.08
2018-11-14T03:43:47.424Z,72.46
2018-11-14T03:46:18.045Z,72.77
2018-11-14T03:48:49.931Z,72.61
2018-11-14T03:51:24.846Z,72.24
2018-11-14T03:53:56.086Z,71.80
2018-11-14T03:56:27.172Z,72.13
2018-11-14T03:59:00.076Z,71.78
2018-11-14T04:01:31.209Z,72.25
2018-11-14T04:04:02.504Z,72.65
2018-11-14T04:06:35.085Z,72.55
2018-11-14T04:09:09.701Z,72.87
2018-11-14T04:11:47.858Z,73.01
2018-11-14T04:14:22.916Z,73.31
2018-11-14T04:16:56.314Z,73.96
2018-11-14T04:19:29.020Z,73.83
2018-11-14T04:21:59.953Z,73.75
2018-11-14T04:24:30.556Z,74.06
2018-11-14T04:27:04.014Z,74.00
2018-11-14T04:29:37.078Z,74.67
2018-11-14T04:32:10.178Z,74.17
2018-11-14T04:34:41.265Z,73.78
2018-11-14T04:37:13.677Z,73.48
2018-11-14T04:39:48.804Z,74.13
2018-11-14T04:42:19.929Z,74.01
2018-11-14T04:44:50.494Z,74.01
2018-11-14T04:47:21.704Z,74.62
2018-11-14T04:49:54.414Z,74.21
2018-11-14T04:52:24.998Z,74.02
2018-11-14T04:54:59.233Z,74.14
2018-11-14T04:57:32.337Z,74.25
2018-11-14T05:00:04.434Z,74.13
2018-11-14T05:02:38.309Z,74.55
2018-11-14T05:05:12.916Z,74.69
2018-11-14T05:07:54.253Z,74.96
2018-11-14T05:10:32.765Z,75.40
2018-11-14T05:13:03.938Z,75.04
2018-11-14T05:15:35.261Z,75.22
2018-11-14T05:18:08.348Z,75.57
2018-11-14T05:20:49.956Z,75.62
2018-11-14T05:23:21.477Z,75.43
2018-11-14T05:25:52.517Z,74.91
2018-11-14T05:28:25.114Z,75.38
2018-11-14T05:31:02.093Z,75.47
2018-11-14T05:33:32.972Z,74.29
2018-11-14T05:36:03.862Z,73.89
2018-11-14T05:38:36.393Z,73.19
2018-11-14T05:41:14.488Z,71.42
2018-11-14T05:43:47.065Z,70.62
2018-11-14T05:46:23.669Z,69.66
2018-11-14T05:48:57.049Z,68.14
2018-11-14T05:51:30.552Z,69.90
2018-11-14T05:54:01.694Z,69.65
2018-11-14T05:56:35.092Z,68.36
2018-11-14T05:59:07.235Z,66.92
2018-11-14T06:01:44.667Z,66.23
2018-11-14T06:04:15.668Z,65.53
2018-11-14T06:06:50.022Z,66.59
2018-11-14T06:09:22.348Z,66.36
2018-11-14T06:11:53.704Z,68.80
2018-11-14T06:14:25.576Z,71.23
2018-11-14T06:16:58.358Z,71.74
2018-11-14T06:19:28.908Z,71.96
2018-11-14T06:22:02.590Z,73.25
2018-11-14T06:24:35.422Z,74.37
2018-11-14T06:27:07.756Z,74.43
2018-11-14T06:29:41.287Z,74.50
2018-11-14T06:32:13.945Z,73.75
2018-11-14T06:34:45.038Z,72.12
2018-11-14T06:37:18.187Z,69.24
2018-11-14T06:39:48.571Z,68.47
2018-11-14T06:42:19.287Z,67.09
2018-11-14T06:44:49.570Z,67.59
2018-11-14T06:47:20.777Z,68.05
2018-11-14T06:49:54.224Z,69.42
2018-11-14T06:52:26.873Z,68.85
2018-11-14T06:54:58.804Z,67.10
2018-11-14T06:57:32.040Z,66.75
2018-11-14T07:00:03.964Z,67.00
2018-11-14T07:02:38.333Z,66.42
2018-11-14T07:05:16.163Z,64.90
2018-11-14T07:07:48.954Z,65.33
2018-11-14T07:10:37.687Z,65.96
2018-11-14T07:13:25.647Z,67.34
2018-11-14T07:15:56.737Z,67.03
2018-11-14T07:18:27.440Z,65.83
2018-11-14T07:20:58.008Z,65.10
2018-11-14T07:23:28.692Z,64.06
2018-11-14T07:25:59.217Z,63.82
2018-11-14T07:28:29.908Z,62.93
2018-11-14T07:31:00.433Z,62.16
2018-11-14T07:33:31.411Z,61.68
2018-11-14T07:36:02.258Z,62.24
2018-11-14T07:38:41.627Z,61.46
2018-11-14T07:41:18.121Z,60.75
2018-11-14T07:43:49.112Z,60.60
2018-11-14T07:46:20.605Z,61.18
2018-11-14T07:48:51.707Z,60.61
2018-11-14T07:51:26.984Z,60.65
2018-11-14T07:54:00.779Z,61.42
2018-11-14T07:56:34.149Z,61.26
2018-11-14T07:59:05.040Z,64.66
2018-11-14T08:01:36.187Z,65.23
2018-11-14T08:04:07.468Z,66.15
2018-11-14T08:06:39.360Z,66.08
2018-11-14T08:09:09.933Z,65.19
2018-11-14T08:11:40.682Z,64.70
2018-11-14T08:14:11.229Z,64.83
2018-11-14T08:16:42.074Z,65.89
2018-11-14T08:19:15.417Z,65.29
2018-11-14T08:21:48.285Z,64.94
2018-11-14T08:24:21.199Z,65.54
2018-11-14T08:26:52.420Z,65.19
2018-11-14T08:29:23.945Z,65.08
2018-11-14T08:31:57.420Z,64.79
2018-11-14T08:34:28.721Z,64.39
2018-11-14T08:36:59.712Z,64.86
2018-11-14T08:39:31.353Z,64.61
2018-11-14T08:42:03.385Z,64.67
2018-11-14T08:44:33.818Z,64.45
2018-11-14T08:47:05.345Z,63.70
2018-11-14T08:49:38.324Z,63.30
2018-11-14T08:52:10.363Z,62.99
2018-11-14T08:54:42.277Z,62.33
2018-11-14T08:57:13.322Z,62.17
2018-11-14T08:59:44.729Z,61.56
2018-11-14T09:02:17.521Z,61.38
2018-11-14T09:04:48.180Z,61.96
2018-11-14T09:07:21.464Z,62.28
2018-11-14T09:09:52.546Z,61.89
2018-11-14T09:12:25.284Z,61.39
2018-11-14T09:14:56.112Z,61.78
2018-11-14T09:17:26.905Z,61.70
2018-11-14T09:19:57.887Z,61.99
2018-11-14T09:22:28.133Z,61.33
2018-11-14T09:24:59.731Z,60.48
2018-11-14T09:27:33.892Z,59.63
2018-11-14T09:30:07.060Z,60.27
2018-11-14T09:32:39.523Z,59.77
2018-11-14T09:35:13.347Z,60.53
2018-11-14T09:37:59.580Z,59.67
2018-11-14T09:40:33.958Z,55.81
2018-11-14T09:43:04.934Z,51.58
2018-11-14T09:45:36.551Z,45.58
2018-11-14T09:48:07.824Z,46.25
2018-11-14T09:50:43.432Z,43.48
2018-11-14T09:53:15.687Z,42.89
2018-11-14T09:55:48.553Z,43.06
2018-11-14T09:58:19.624Z,39.71
2018-11-14T10:00:52.843Z,40.65
2018-11-14T10:03:23.550Z,44.20
2018-11-14T10:05:54.740Z,39.91
2018-11-14T10:08:25.456Z,38.90
2018-11-14T10:10:56.371Z,35.94
2018-11-14T10:13:35.622Z,37.20
2018-11-14T10:16:12.705Z,36.30
2018-11-14T10:18:46.404Z,36.98
2018-11-14T10:21:23.368Z,41.60
2018-11-14T10:24:01.979Z,42.08
2018-11-14T10:26:33.682Z,38.61
2018-11-14T10:29:04.589Z,35.71
2018-11-14T10:31:35.488Z,37.01
2018-11-14T10:34:11.762Z,39.75
2018-11-14T10:36:43.984Z,41.81
2018-11-14T10:39:14.598Z,46.72
2018-11-14T10:41:45.411Z,48.41
2018-11-14T10:44:20.872Z,49.91
2018-11-14T10:46:52.161Z,49.90
2018-11-14T10:49:24.083Z,50.65
2018-11-14T10:51:56.939Z,52.70
2018-11-14T10:54:30.364Z,52.35
2018-11-14T10:57:04.315Z,52.50
2018-11-14T10:59:37.276Z,52.50
2018-11-14T11:02:13.207Z,50.93
2018-11-14T11:04:50.028Z,51.54
2018-11-14T11:07:26.327Z,50.56
2018-11-14T11:10:03.474Z,50.14
2018-11-14T11:12:44.212Z,50.65
2018-11-14T11:15:26.457Z,50.47
2018-11-14T11:18:01.070Z,50.77
2018-11-14T11:20:34.699Z,51.31
2018-11-14T11:23:05.601Z,51.30
2018-11-14T11:25:39.378Z,50.51
2018-11-14T11:28:12.204Z,52.32
2018-11-14T11:30:50.742Z,51.49
2018-11-14T11:33:23.394Z,49.68
2018-11-14T11:35:56.311Z,51.32
2018-11-14T11:38:29.309Z,52.62
2018-11-14T11:41:00.481Z,51.90
2018-11-14T11:43:33.688Z,52.08
2018-11-14T11:46:06.025Z,51.14
2018-11-14T11:48:39.537Z,47.72
2018-11-14T11:51:11.309Z,46.66
2018-11-14T11:53:43.352Z,46.24
2018-11-14T11:56:16.424Z,47.90
2018-11-14T11:58:49.225Z,48.92
2018-11-14T12:01:22.745Z,48.66
2018-11-14T12:03:53.576Z,46.34
2018-11-14T12:06:24.344Z,45.64
2018-11-14T12:08:55.090Z,45.68
2018-11-14T12:11:25.840Z,46.40
2018-11-14T12:13:56.184Z,45.17
2018-11-14T12:16:27.070Z,46.58
2018-11-14T12:18:58.422Z,46.65
2018-11-14T12:21:31.479Z,47.93
2018-11-14T12:24:04.299Z,48.44
2018-11-14T12:26:37.446Z,50.37
2018-11-14T12:29:08.592Z,49.65
2018-11-14T12:31:40.789Z,48.98
2018-11-14T12:34:16.903Z,47.14
2018-11-14T12:36:47.731Z,47.97
2018-11-14T12:39:18.044Z,48.68
2018-11-14T12:41:48.779Z,49.90
2018-11-14T12:44:19.792Z,49.96
2018-11-14T12:46:52.749Z,48.54
2018-11-14T12:49:26.722Z,49.33
2018-11-14T12:51:57.990Z,49.06
2018-11-14T12:54:29.061Z,49.71
2018-11-14T12:57:00.573Z,50.27
2018-11-14T12:59:34.028Z,49.54
2018-11-14T13:02:05.374Z,49.46
2018-11-14T13:04:37.497Z,49.11
2018-11-14T13:07:08.781Z,48.18
2018-11-14T13:09:39.519Z,49.07
2018-11-14T13:12:12.359Z,48.03
2018-11-14T13:14:43.804Z,48.06
2018-11-14T13:17:16.683Z,49.09
2018-11-14T13:19:48.271Z,48.86
2018-11-14T13:22:21.283Z,49.42
2018-11-14T13:24:52.405Z,49.14
2018-11-14T13:27:28.221Z,48.10
2018-11-14T13:29:58.767Z,50.24
2018-11-14T13:32:29.171Z,51.08
2018-11-14T13:35:00.217Z,50.97
2018-11-14T13:37:30.708Z,50.51
2018-11-14T13:40:04.202Z,50.67
2018-11-14T13:42:38.017Z,50.35
2018-11-14T13:48:05.567Z,51.83
2018-11-14T13:50:37.767Z,52.36
2018-11-14T13:53:10.844Z,52.67
2018-11-14T13:55:43.752Z,53.19
2018-11-14T13:58:14.658Z,52.72
2018-11-14T14:00:48.652Z,52.48
2018-11-14T14:03:21.503Z,52.00
2018-11-14T14:05:52.194Z,51.87
2018-11-14T14:08:22.794Z,52.07
2018-11-14T14:10:55.902Z,52.19
2018-11-14T14:13:30.727Z,52.00
2018-11-14T14:16:03.984Z,52.12
2018-11-14T14:18:36.688Z,52.42
2018-11-14T14:21:10.116Z,51.72
2018-11-14T14:23:42.643Z,52.30
2018-11-14T14:26:15.026Z,52.53
2018-11-14T14:28:47.948Z,52.29
2018-11-14T14:31:18.583Z,52.79
2018-11-14T14:33:58.086Z,52.84
2018-11-14T14:36:28.933Z,52.45
2018-11-14T14:39:01.617Z,52.91
2018-11-14T14:41:34.989Z,53.27
2018-11-14T14:44:05.956Z,53.11
2018-11-14T14:46:37.124Z,53.42
2018-11-14T14:49:12.492Z,53.72
2018-11-14T14:51:44.220Z,54.09
2018-11-14T14:54:17.393Z,54.22
2018-11-14T14:56:48.078Z,53.90
2018-11-14T14:59:19.292Z,53.77
2018-11-14T15:01:52.244Z,54.06
2018-11-14T15:04:39.548Z,54.18
2018-11-14T15:07:10.312Z,54.68
2018-11-14T15:09:42.554Z,53.98
2018-11-14T15:12:18.498Z,54.18
2018-11-14T15:14:49.300Z,53.71
2018-11-14T15:17:22.166Z,54.46
2018-11-14T15:19:53.465Z,54.46
2018-11-14T15:22:24.204Z,54.73
2018-11-14T15:24:58.700Z,55.83
2018-11-14T15:27:30.778Z,55.97
2018-11-14T15:30:02.109Z,55.86
2018-11-14T15:32:34.242Z,55.83
2018-11-14T15:35:06.574Z,55.75
2018-11-14T15:37:40.131Z,54.80
2018-11-14T15:43:03.811Z,56.12
2018-11-14T15:45:35.633Z,56.48
2018-11-14T15:48:08.554Z,55.54
2018-11-14T15:50:40.515Z,55.64
2018-11-14T15:53:11.412Z,56.19
2018-11-14T15:55:44.993Z,56.66
2018-11-14T15:58:15.632Z,56.81
2018-11-14T16:00:46.483Z,56.94
2018-11-14T16:03:17.528Z,56.50
2018-11-14T16:05:50.504Z,56.43
2018-11-14T16:08:22.473Z,55.94
2018-11-14T16:10:55.717Z,55.85
2018-11-14T16:13:28.444Z,55.88
2018-11-14T16:16:02.525Z,54.31
2018-11-14T16:18:35.171Z,53.49
2018-11-14T16:21:06.086Z,53.93
2018-11-14T16:23:42.398Z,55.44
2018-11-14T16:26:16.727Z,55.49
2018-11-14T16:28:48.620Z,56.08
2018-11-14T16:31:22.399Z,57.13
2018-11-14T16:33:53.135Z,57.08
2018-11-14T16:36:23.815Z,56.71
2018-11-14T16:38:54.728Z,57.36
2018-11-14T16:41:27.608Z,57.78
2018-11-14T16:43:58.517Z,58.72
2018-11-14T16:46:32.755Z,58.68
2018-11-14T16:49:05.848Z,58.83
2018-11-14T16:51:38.836Z,58.94
2018-11-14T16:54:10.868Z,58.98
2018-11-14T16:56:42.347Z,59.41
2018-11-14T16:59:13.159Z,59.27
2018-11-14T17:01:48.618Z,60.43
2018-11-14T17:04:19.656Z,60.57
2018-11-14T17:06:50.853Z,60.30
2018-11-14T17:09:22.605Z,60.24
2018-11-14T17:11:57.644Z,61.07
2018-11-14T17:14:29.933Z,60.94
2018-11-14T17:17:01.958Z,61.50
2018-11-14T17:19:32.797Z,62.36
2018-11-14T17:22:05.546Z,62.52
2018-11-14T17:24:36.887Z,62.88
2018-11-14T17:27:09.054Z,63.16
2018-11-14T17:29:41.763Z,63.49
2018-11-14T17:32:16.524Z,63.48
2018-11-14T17:34:48.177Z,63.39
2018-11-14T17:37:21.304Z,64.18
2018-11-14T17:39:51.919Z,64.37
2018-11-14T17:42:25.390Z,64.23
2018-11-14T17:44:58.792Z,64.51
2018-11-14T17:47:33.544Z,64.57
2018-11-14T17:50:08.928Z,63.98
2018-11-14T17:52:39.724Z,63.82
2018-11-14T17:55:11.958Z,63.62
2018-11-14T17:58:01.334Z,63.85
2018-11-14T18:00:33.872Z,63.33
2018-11-14T18:03:05.232Z,62.75
2018-11-14T18:05:46.593Z,61.30
2018-11-14T18:08:22.873Z,63.47
2018-11-14T18:10:56.041Z,62.05
2018-11-14T18:13:29.015Z,60.04
2018-11-14T18:15:59.861Z,59.86
2018-11-14T18:18:30.698Z,59.18
2018-11-14T18:21:10.966Z,58.83
2018-11-14T18:23:46.440Z,58.86
2018-11-14T18:26:17.403Z,60.17
2018-11-14T18:28:50.989Z,60.55
2018-11-14T18:31:24.505Z,59.25
2018-11-14T18:34:01.096Z,59.99
2018-11-14T18:36:34.246Z,58.82
2018-11-14T18:39:08.871Z,59.67
2018-11-14T18:41:44.025Z,59.63
2018-11-14T18:44:17.299Z,59.45
2018-11-14T18:46:49.155Z,59.00
2018-11-14T18:49:21.376Z,58.76
2018-11-14T18:51:52.375Z,58.74
2018-11-14T18:54:22.980Z,59.01
2018-11-14T18:56:53.816Z,60.94
2018-11-14T18:59:32.775Z,62.86
2018-11-14T19:02:05.308Z,64.21
2018-11-14T19:04:37.630Z,65.15
2018-11-14T19:07:10.666Z,66.01
2018-11-14T19:09:44.367Z,66.91
2018-11-14T19:12:17.373Z,67.27
2018-11-14T19:14:48.526Z,67.61
2018-11-14T19:17:22.125Z,68.18
2018-11-14T19:19:55.912Z,70.02
2018-11-14T19:22:34.602Z,71.44
2018-11-14T19:25:05.621Z,71.07
2018-11-14T19:27:38.919Z,70.12
2018-11-14T19:30:23.363Z,69.25
2018-11-14T19:33:05.817Z,69.02
2018-11-14T19:35:36.524Z,70.42
2018-11-14T19:38:08.082Z,69.64
2018-11-14T19:41:00.693Z,69.95
2018-11-14T19:43:32.445Z,70.42
2018-11-14T19:46:03.099Z,71.23
2018-11-14T19:48:40.135Z,71.42
2018-11-14T19:51:15.491Z,71.25
2018-11-14T19:53:49.088Z,71.45
2018-11-14T19:56:19.827Z,70.84
2018-11-14T19:58:50.361Z,71.33
2018-11-14T20:01:26.538Z,71.85
2018-11-14T20:04:03.789Z,72.54
2018-11-14T20:06:40.217Z,72.25
2018-11-14T20:09:13.743Z,72.82
2018-11-14T20:11:46.598Z,73.03
2018-11-14T20:14:22.929Z,72.85
2018-11-14T20:16:53.485Z,72.43
2018-11-14T20:19:26.452Z,72.98
2018-11-14T20:21:58.008Z,73.27
2018-11-14T20:24:34.517Z,74.52
2018-11-14T20:27:10.886Z,73.99
2018-11-14T20:29:41.662Z,73.65
2018-11-14T20:32:12.958Z,74.83
2018-11-14T20:34:54.344Z,75.39
2018-11-14T20:37:33.838Z,75.92
2018-11-14T20:40:05.355Z,76.10
2018-11-14T20:42:41.638Z,75.80
2018-11-14T20:45:31.161Z,74.56
2018-11-14T20:48:04.033Z,73.84
2018-11-14T20:50:41.180Z,73.98
2018-11-14T20:53:20.246Z,74.23
2018-11-14T20:55:56.530Z,74.06
2018-11-14T20:58:29.684Z,73.66
2018-11-14T21:01:06.248Z,73.68
2018-11-14T21:03:38.034Z,72.99
2018-11-14T21:06:12.811Z,72.84
2018-11-14T21:08:48.972Z,73.99
2018-11-14T21:11:25.433Z,75.16
2018-11-14T21:14:01.613Z,75.31
2018-11-14T21:16:34.790Z,74.99
2018-11-14T21:19:05.937Z,74.63
2018-11-14T21:21:41.992Z,74.42
2018-11-14T21:24:13.968Z,74.54
2018-11-14T21:26:52.422Z,74.92
2018-11-14T21:29:24.849Z,75.07
2018-11-14T21:32:01.032Z,74.55
2018-11-14T21:34:37.328Z,75.00
2018-11-14T21:37:14.304Z,74.47
2018-11-14T21:39:45.951Z,74.58
2018-11-14T21:42:21.996Z,74.49
2018-11-14T21:44:58.171Z,74.77
2018-11-14T21:47:38.903Z,74.85
2018-11-14T21:50:12.780Z,74.91
2018-11-14T21:52:51.498Z,75.73
2018-11-14T21:55:28.684Z,75.76
2018-11-14T21:58:04.737Z,75.11
2018-11-14T22:00:41.665Z,74.86
2018-11-14T22:03:15.242Z,73.88
2018-11-14T22:05:51.298Z,74.00
2018-11-14T22:08:24.863Z,73.70
2018-11-14T22:10:58.291Z,73.04
2018-11-14T22:13:34.577Z,72.98
2018-11-14T22:16:10.769Z,72.97
2018-11-14T22:18:42.085Z,72.30
2018-11-14T22:21:18.196Z,71.53
2018-11-14T22:23:54.297Z,72.21
2018-11-14T22:26:25.652Z,73.04
2018-11-14T22:28:56.276Z,73.34
2018-11-14T22:31:32.875Z,74.33
2018-11-14T22:34:08.773Z,74.13
2018-11-14T22:36:39.342Z,74.26
2018-11-14T22:39:10.529Z,73.67
2018-11-14T22:41:43.205Z,73.39
2018-11-14T22:44:24.769Z,73.83
2018-11-14T22:47:00.916Z,74.11
2018-11-14T22:49:33.604Z,74.56
2018-11-14T22:52:09.804Z,73.97
2018-11-14T22:54:47.600Z,72.04
2018-11-14T22:57:24.874Z,70.35
2018-11-14T22:59:59.383Z,70.66
2018-11-14T23:02:29.928Z,71.49
2018-11-14T23:05:03.150Z,69.78
2018-11-14T23:07:41.267Z,69.26
2018-11-14T23:10:29.683Z,71.00
2018-11-14T23:13:02.133Z,71.78
2018-11-14T23:15:32.921Z,73.27
2018-11-14T23:18:09.261Z,72.83
2018-11-14T23:20:45.267Z,73.12
2018-11-14T23:23:17.866Z,73.46
2018-11-14T23:25:48.851Z,73.70
2018-11-14T23:28:25.088Z,73.33
2018-11-14T23:31:05.257Z,73.29
2018-11-14T23:33:36.707Z,73.09
2018-11-14T23:36:07.818Z,71.54
2018-11-14T23:38:38.354Z,69.83
2018-11-14T23:41:09.600Z,68.90
2018-11-14T23:43:42.593Z,69.49
2018-11-14T23:46:15.779Z,72.20
2018-11-14T23:48:51.993Z,74.67
2018-11-14T23:51:22.696Z,75.42
2018-11-14T23:53:59.161Z,75.74
2018-11-14T23:56:32.476Z,75.87
2018-11-14T23:59:03.569Z,75.89
